createdAt,value
2023-02-11T00:02:18.719Z,-8.54
2023-02-11T00:04:53.994Z,-8.54
2023-02-11T00:07:26.586Z,-8.52
2023-02-11T00:09:57.065Z,-8.51
2023-02-11T00:12:31.820Z,-8.50
2023-02-11T00:15:02.534Z,-8.51
2023-02-11T00:17:36.254Z,-8.52
2023-02-11T00:20:08.311Z,-8.53
2023-02-11T00:22:39.391Z,-8.59
2023-02-11T00:25:09.743Z,-8.65
2023-02-11T00:27:39.278Z,-8.69
2023-02-11T00:30:11.827Z,-8.72
2023-02-11T00:32:47.343Z,-8.75
2023-02-11T00:35:18.191Z,-8.76
2023-02-11T00:37:48.611Z,-8.78
2023-02-11T00:40:19.190Z,-8.79
2023-02-11T00:42:49.260Z,-8.79
2023-02-11T00:45:21.816Z,-8.80
2023-02-11T00:47:53.228Z,-8.79
2023-02-11T00:50:23.899Z,-8.80
2023-02-11T00:52:55.339Z,-8.82
2023-02-11T00:55:25.470Z,-8.83
2023-02-11T00:57:55.588Z,-8.82
2023-02-11T01:00:25.058Z,-8.81
2023-02-11T01:02:55.323Z,-8.79
2023-02-11T01:05:25.972Z,-8.77
2023-02-11T01:07:56.492Z,-8.78
2023-02-11T01:10:26.731Z,-8.79
2023-02-11T01:12:57.562Z,-8.82
2023-02-11T01:15:30.177Z,-8.84
2023-02-11T01:18:05.236Z,-8.87
2023-02-11T01:20:36.924Z,-8.88
2023-02-11T01:23:08.064Z,-8.91
2023-02-11T01:25:39.492Z,-8.93
2023-02-11T01:28:25.252Z,-8.97
2023-02-11T01:30:58.926Z,-8.99
2023-02-11T01:33:30.204Z,-9.02
2023-02-11T01:36:05.037Z,-9.07
2023-02-11T01:38:36.510Z,-9.06
2023-02-11T01:41:11.333Z,-9.09
2023-02-11T01:43:45.905Z,-9.10
2023-02-11T01:46:38.961Z,-9.13
2023-02-11T01:49:17.206Z,-9.17
2023-02-11T01:52:04.206Z,-9.20
2023-02-11T01:54:57.625Z,-9.21
2023-02-11T01:57:31.637Z,-9.23
2023-02-11T02:00:16.564Z,-9.24
2023-02-11T02:03:00.961Z,-9.24
2023-02-11T02:06:04.247Z,-9.22
2023-02-11T02:08:43.043Z,-9.21
2023-02-11T02:11:13.145Z,-9.19
2023-02-11T02:13:45.587Z,-9.24
2023-02-11T02:16:18.996Z,-9.28
2023-02-11T02:19:30.184Z,-9.34
2023-02-11T02:22:25.307Z,-9.43
2023-02-11T02:25:04.983Z,-9.46
2023-02-11T02:27:57.152Z,-9.51
2023-02-11T02:30:46.529Z,-9.54
2023-02-11T02:33:34.361Z,-9.56
2023-02-11T02:36:15.939Z,-9.55
2023-02-11T02:38:49.635Z,-9.52
2023-02-11T02:41:32.918Z,-9.53
2023-02-11T02:44:05.719Z,-9.56
2023-02-11T02:46:37.335Z,-9.55
2023-02-11T02:49:17.067Z,-9.53
2023-02-11T02:52:11.906Z,-9.51
2023-02-11T02:54:57.244Z,-9.51
2023-02-11T02:57:50.513Z,-9.53
2023-02-11T03:01:02.467Z,-9.57
2023-02-11T03:03:45.757Z,-9.60
2023-02-11T03:06:34.962Z,-9.58
2023-02-11T03:10:02.882Z,-9.59
2023-02-11T03:12:35.438Z,-9.63
2023-02-11T03:15:07.435Z,-9.69
2023-02-11T03:17:42.416Z,-9.70
2023-02-11T03:20:17.655Z,-9.73
2023-02-11T03:22:53.513Z,-9.76
2023-02-11T03:25:36.336Z,-9.75
2023-02-11T03:28:39.974Z,-9.72
2023-02-11T03:31:15.600Z,-9.69
2023-02-11T03:34:12.972Z,-9.69
2023-02-11T03:36:57.486Z,-9.72
2023-02-11T03:39:37.562Z,-9.73
2023-02-11T03:42:10.166Z,-9.73
2023-02-11T03:44:54.544Z,-9.68
2023-02-11T03:47:28.414Z,-9.65
2023-02-11T03:50:01.434Z,-9.61
2023-02-11T03:52:34.240Z,-9.61
2023-02-11T03:55:13.553Z,-9.61
2023-02-11T03:57:43.949Z,-9.59
2023-02-11T04:00:15.905Z,-9.57
2023-02-11T04:02:48.305Z,-9.62
2023-02-11T04:05:18.604Z,-9.65
2023-02-11T04:07:48.413Z,-9.65
2023-02-11T04:10:18.814Z,-9.65
2023-02-11T04:12:48.584Z,-9.67
2023-02-11T04:15:21.002Z,-9.72
2023-02-11T04:17:51.294Z,-9.81
2023-02-11T04:20:21.257Z,-9.87
2023-02-11T04:22:51.025Z,-9.91
2023-02-11T04:25:23.423Z,-9.92
2023-02-11T04:27:53.895Z,-9.93
2023-02-11T04:30:23.454Z,-9.94
2023-02-11T04:32:54.674Z,-9.95
2023-02-11T04:35:23.937Z,-9.96
2023-02-11T04:37:54.261Z,-10.01
2023-02-11T04:40:23.946Z,-10.04
2023-02-11T04:42:56.276Z,-10.09
2023-02-11T04:45:32.799Z,-10.15
2023-02-11T04:48:04.836Z,-10.21
2023-02-11T04:50:36.249Z,-10.25
2023-02-11T04:53:05.680Z,-10.30
2023-02-11T04:55:35.192Z,-10.32
2023-02-11T04:58:06.338Z,-10.33
2023-02-11T05:00:35.197Z,-10.32
2023-02-11T05:03:04.215Z,-10.30
2023-02-11T05:05:37.125Z,-10.28
2023-02-11T05:08:08.596Z,-10.29
2023-02-11T05:10:39.380Z,-10.31
2023-02-11T05:13:09.406Z,-10.33
2023-02-11T05:15:39.996Z,-10.36
2023-02-11T05:18:09.475Z,-10.38
2023-02-11T05:20:39.754Z,-10.41
2023-02-11T05:23:12.487Z,-10.43
2023-02-11T05:25:42.014Z,-10.43
2023-02-11T05:28:13.253Z,-10.42
2023-02-11T05:30:43.226Z,-10.45
2023-02-11T05:33:15.276Z,-10.49
2023-02-11T05:35:52.497Z,-10.53
2023-02-11T05:38:29.586Z,-10.53
2023-02-11T05:41:01.403Z,-10.55
2023-02-11T05:43:31.286Z,-10.57
2023-02-11T05:46:21.154Z,-10.58
2023-02-11T05:48:50.688Z,-10.61
2023-02-11T05:51:21.085Z,-10.61
2023-02-11T05:53:51.978Z,-10.61
2023-02-11T05:56:21.284Z,-10.61
2023-02-11T05:58:50.815Z,-10.59
2023-02-11T06:01:20.745Z,-10.57
2023-02-11T06:03:55.323Z,-10.52
2023-02-11T06:06:25.914Z,-10.45
2023-02-11T06:08:56.694Z,-10.39
2023-02-11T06:11:38.647Z,-10.33
2023-02-11T06:14:07.909Z,-10.31
2023-02-11T06:16:47.826Z,-10.30
2023-02-11T06:19:20.158Z,-10.29
2023-02-11T06:21:50.057Z,-10.25
2023-02-11T06:24:47.841Z,-10.20
2023-02-11T06:27:12.975Z,-10.13
2023-02-11T06:29:42.898Z,-10.04
2023-02-11T06:32:33.552Z,-9.94
2023-02-11T06:35:04.302Z,-9.82
2023-02-11T06:37:35.643Z,-9.73
2023-02-11T06:40:05.125Z,-9.64
2023-02-11T06:42:35.125Z,-9.57
2023-02-11T06:45:11.557Z,-9.51
2023-02-11T06:47:43.655Z,-9.41
2023-02-11T06:50:15.555Z,-9.29
2023-02-11T06:52:48.217Z,-9.15
2023-02-11T06:55:18.265Z,-9.02
2023-02-11T06:57:50.577Z,-8.88
2023-02-11T07:00:22.695Z,-8.74
2023-02-11T07:02:55.319Z,-8.61
2023-02-11T07:05:24.776Z,-8.49
2023-02-11T07:07:56.131Z,-8.37
2023-02-11T07:10:25.727Z,-8.22
2023-02-11T07:12:58.457Z,-8.08
2023-02-11T07:15:29.234Z,-7.93
2023-02-11T07:18:01.207Z,-7.81
2023-02-11T07:20:31.539Z,-7.65
2023-02-11T07:23:03.547Z,-7.46
2023-02-11T07:25:39.104Z,-7.28
2023-02-11T07:28:08.503Z,-7.07
2023-02-11T07:30:38.266Z,-6.86
2023-02-11T07:33:07.878Z,-6.68
2023-02-11T07:35:37.481Z,-6.53
2023-02-11T07:38:07.691Z,-6.35
2023-02-11T07:40:39.915Z,-6.18
2023-02-11T07:43:12.076Z,-6.00
2023-02-11T07:45:41.205Z,-5.81
2023-02-11T07:48:11.028Z,-5.62
2023-02-11T07:50:40.640Z,-5.41
2023-02-11T07:53:11.290Z,-5.29
2023-02-11T07:55:44.493Z,-5.22
2023-02-11T07:58:17.434Z,-5.16
2023-02-11T08:03:45.175Z,-5.08
2023-02-11T08:06:18.661Z,-5.03
2023-02-11T08:08:48.726Z,-4.98
2023-02-11T08:11:25.949Z,-4.92
2023-02-11T08:13:58.026Z,-4.82
2023-02-11T08:16:35.056Z,-4.69
2023-02-11T08:19:07.253Z,-4.57
2023-02-11T08:21:37.285Z,-4.42
2023-02-11T08:24:07.512Z,-4.29
2023-02-11T08:26:38.013Z,-4.22
2023-02-11T08:29:12.124Z,-4.14
2023-02-11T08:31:45.865Z,-4.04
2023-02-11T08:34:19.501Z,-3.93
2023-02-11T08:36:49.659Z,-3.86
2023-02-11T08:39:22.379Z,-3.69
2023-02-11T08:41:54.712Z,-3.54
2023-02-11T08:44:25.904Z,-3.43
2023-02-11T08:46:56.320Z,-3.31
2023-02-11T08:49:25.733Z,-3.17
2023-02-11T08:52:04.702Z,-2.99
2023-02-11T08:54:34.108Z,-2.82
2023-02-11T08:57:06.083Z,-2.69
2023-02-11T08:59:36.183Z,-2.52
2023-02-11T09:02:12.994Z,-2.36
2023-02-11T09:04:42.866Z,-2.22
2023-02-11T09:07:13.861Z,-2.17
2023-02-11T09:09:44.838Z,-2.11
2023-02-11T09:12:14.378Z,-1.96
2023-02-11T09:14:45.550Z,-1.78
2023-02-11T09:17:16.535Z,-1.61
2023-02-11T09:19:52.086Z,-1.47
2023-02-11T09:22:30.164Z,-1.27
2023-02-11T09:24:59.457Z,-1.10
2023-02-11T09:27:34.992Z,-0.92
2023-02-11T09:30:10.630Z,-0.72
2023-02-11T09:32:43.029Z,-0.55
2023-02-11T09:35:12.037Z,-0.38
2023-02-11T09:37:41.266Z,-0.21
2023-02-11T09:40:23.604Z,0.01
2023-02-11T09:43:19.131Z,0.24
2023-02-11T09:46:00.274Z,0.41
2023-02-11T09:48:52.761Z,0.63
2023-02-11T09:52:16.392Z,0.87
2023-02-11T09:55:19.930Z,1.30
2023-02-11T09:57:51.694Z,1.57
2023-02-11T10:00:35.843Z,1.71
2023-02-11T10:03:09.024Z,1.90
2023-02-11T10:06:39.737Z,1.98
2023-02-11T10:09:36.707Z,2.03
2023-02-11T10:12:36.393Z,2.20
2023-02-11T10:15:31.092Z,2.43
2023-02-11T10:18:27.338Z,2.62
2023-02-11T10:21:10.887Z,2.68
2023-02-11T10:23:47.808Z,2.73
2023-02-11T10:26:28.090Z,2.97
2023-02-11T10:29:30.797Z,3.23
2023-02-11T10:32:25.350Z,3.63
2023-02-11T10:35:19.806Z,4.06
2023-02-11T10:37:58.886Z,4.28
2023-02-11T10:40:35.628Z,4.66
2023-02-11T10:43:16.578Z,4.97
2023-02-11T10:45:53.194Z,5.33
2023-02-11T10:49:01.455Z,5.64
2023-02-11T10:51:38.320Z,6.16
2023-02-11T10:54:38.791Z,6.60
2023-02-11T10:57:36.898Z,6.87
2023-02-11T11:00:34.531Z,7.01
2023-02-11T11:03:12.250Z,6.97
2023-02-11T11:05:59.809Z,6.69
2023-02-11T11:08:41.487Z,6.32
2023-02-11T11:11:28.347Z,5.96
2023-02-11T11:14:32.586Z,5.61
2023-02-11T11:17:20.823Z,5.29
2023-02-11T11:20:34.967Z,5.22
2023-02-11T11:23:56.764Z,5.17
2023-02-11T11:27:09.208Z,4.92
2023-02-11T11:29:57.299Z,4.77
2023-02-11T11:32:58.137Z,4.55
2023-02-11T11:35:36.126Z,4.33
2023-02-11T11:38:20.528Z,4.13
2023-02-11T11:41:29.544Z,3.95
2023-02-11T11:44:28.282Z,3.74
2023-02-11T11:47:12.782Z,3.65
2023-02-11T11:50:14.873Z,3.50
2023-02-11T11:53:12.821Z,3.29
2023-02-11T11:56:04.761Z,3.26
2023-02-11T11:58:54.903Z,3.34
2023-02-11T12:01:54.099Z,3.46
2023-02-11T12:05:03.783Z,3.70
2023-02-11T12:08:23.681Z,3.90
2023-02-11T12:11:40.112Z,4.17
2023-02-11T12:14:37.132Z,4.37
2023-02-11T12:17:13.337Z,4.64
2023-02-11T12:20:18.330Z,4.94
2023-02-11T12:23:13.767Z,5.34
2023-02-11T12:26:02.168Z,5.58
2023-02-11T12:29:05.380Z,5.78
2023-02-11T12:32:30.634Z,5.91
2023-02-11T12:38:35.559Z,5.82
2023-02-11T12:41:16.745Z,5.73
2023-02-11T12:43:46.092Z,5.55
2023-02-11T12:46:55.161Z,5.34
2023-02-11T12:50:25.018Z,5.24
2023-02-11T12:53:46.552Z,5.28
2023-02-11T12:56:50.237Z,5.57
2023-02-11T13:00:16.352Z,5.82
2023-02-11T13:03:27.135Z,6.10
2023-02-11T13:06:41.773Z,6.43
2023-02-11T13:12:56.875Z,6.76
2023-02-11T13:15:38.255Z,6.67
2023-02-11T13:18:23.653Z,6.61
2023-02-11T13:21:07.966Z,6.53
2023-02-11T13:24:26.756Z,6.48
2023-02-11T13:27:50.944Z,6.33
2023-02-11T13:31:09.407Z,6.02
2023-02-11T13:33:54.069Z,5.69
2023-02-11T13:36:42.100Z,5.48
2023-02-11T13:39:30.305Z,5.24
2023-02-11T13:42:39.642Z,4.97
2023-02-11T13:45:42.971Z,4.78
2023-02-11T13:49:01.715Z,4.56
2023-02-11T13:51:56.160Z,4.50
2023-02-11T13:54:46.133Z,4.41
2023-02-11T13:57:34.126Z,4.38
2023-02-11T14:00:35.418Z,4.34
2023-02-11T14:03:32.066Z,4.23
2023-02-11T14:06:27.511Z,4.10
2023-02-11T14:09:19.643Z,3.97
2023-02-11T14:12:30.963Z,3.87
2023-02-11T14:15:13.692Z,3.70
2023-02-11T14:17:53.524Z,3.64
2023-02-11T14:20:47.715Z,3.53
2023-02-11T14:23:27.697Z,3.49
2023-02-11T14:26:24.639Z,3.54
2023-02-11T14:29:22.221Z,3.55
2023-02-11T14:32:26.671Z,3.48
2023-02-11T14:35:35.559Z,3.42
2023-02-11T14:38:22.339Z,3.42
2023-02-11T14:41:41.025Z,3.37
2023-02-11T14:44:34.127Z,3.23
2023-02-11T14:47:03.951Z,3.06
2023-02-11T14:49:45.417Z,2.92
2023-02-11T14:52:27.727Z,2.75
2023-02-11T14:55:09.779Z,2.53
2023-02-11T14:57:43.085Z,2.33
2023-02-11T15:00:23.975Z,2.17
2023-02-11T15:02:54.059Z,1.93
2023-02-11T15:05:27.975Z,1.72
2023-02-11T15:08:09.093Z,1.55
2023-02-11T15:10:45.738Z,1.40
2023-02-11T15:13:22.579Z,1.24
2023-02-11T15:15:58.501Z,1.09
2023-02-11T15:18:40.054Z,0.96
2023-02-11T15:21:10.946Z,0.78
2023-02-11T15:23:45.359Z,0.65
2023-02-11T15:26:21.122Z,0.50
2023-02-11T15:28:52.689Z,0.37
2023-02-11T15:31:30.786Z,0.22
2023-02-11T15:34:12.875Z,0.11
2023-02-11T15:36:42.767Z,-0.03
2023-02-11T15:39:35.117Z,-0.11
2023-02-11T15:42:27.420Z,-0.24
2023-02-11T15:45:15.234Z,-0.38
2023-02-11T15:47:54.014Z,-0.51
2023-02-11T15:50:35.609Z,-0.65
2023-02-11T15:53:25.378Z,-0.78
2023-02-11T15:56:24.852Z,-0.90
2023-02-11T15:58:57.708Z,-1.02
2023-02-11T16:01:36.770Z,-1.12
2023-02-11T16:04:07.355Z,-1.22
2023-02-11T16:06:40.874Z,-1.28
2023-02-11T16:09:13.717Z,-1.33
2023-02-11T16:11:49.196Z,-1.40
2023-02-11T16:14:27.637Z,-1.44
2023-02-11T16:17:09.926Z,-1.44
2023-02-11T16:19:47.970Z,-1.46
2023-02-11T16:22:26.611Z,-1.51
2023-02-11T16:25:02.380Z,-1.60
2023-02-11T16:27:42.426Z,-1.63
2023-02-11T16:30:35.421Z,-1.63
2023-02-11T16:33:05.874Z,-1.62
2023-02-11T16:35:37.787Z,-1.62
2023-02-11T16:38:07.616Z,-1.61
2023-02-11T16:40:37.724Z,-1.59
2023-02-11T16:43:10.024Z,-1.59
2023-02-11T16:45:46.757Z,-1.58
2023-02-11T16:48:20.539Z,-1.58
2023-02-11T16:50:53.688Z,-1.58
2023-02-11T16:53:25.558Z,-1.62
2023-02-11T16:56:00.895Z,-1.64
2023-02-11T16:58:36.830Z,-1.69
2023-02-11T17:01:07.518Z,-1.69
2023-02-11T17:03:42.986Z,-1.75
2023-02-11T17:06:13.984Z,-1.85
2023-02-11T17:08:44.910Z,-1.93
2023-02-11T17:11:17.262Z,-1.99
2023-02-11T17:13:47.711Z,-2.04
2023-02-11T17:16:20.951Z,-2.11
2023-02-11T17:18:50.421Z,-2.16
2023-02-11T17:21:24.199Z,-2.18
2023-02-11T17:23:54.288Z,-2.24
2023-02-11T17:26:23.579Z,-2.33
2023-02-11T17:28:55.756Z,-2.41
2023-02-11T17:31:26.229Z,-2.50
2023-02-11T17:33:57.376Z,-2.57
2023-02-11T17:36:27.950Z,-2.64
2023-02-11T17:39:01.832Z,-2.69
2023-02-11T17:41:31.032Z,-2.72
2023-02-11T17:44:03.683Z,-2.75
2023-02-11T17:46:37.034Z,-2.76
2023-02-11T17:49:06.571Z,-2.78
2023-02-11T17:51:38.425Z,-2.79
2023-02-11T17:54:14.406Z,-2.80
2023-02-11T17:56:43.818Z,-2.79
2023-02-11T17:59:15.492Z,-2.78
2023-02-11T18:01:52.527Z,-2.77
2023-02-11T18:04:22.183Z,-2.76
2023-02-11T18:06:54.157Z,-2.74
2023-02-11T18:09:26.914Z,-2.71
2023-02-11T18:11:56.251Z,-2.69
2023-02-11T18:14:25.736Z,-2.67
2023-02-11T18:16:55.352Z,-2.66
2023-02-11T18:19:24.596Z,-2.66
2023-02-11T18:21:54.399Z,-2.65
2023-02-11T18:24:24.212Z,-2.66
2023-02-11T18:26:55.649Z,-2.67
2023-02-11T18:29:25.907Z,-2.68
2023-02-11T18:31:57.139Z,-2.72
2023-02-11T18:34:26.843Z,-2.77
2023-02-11T18:36:57.452Z,-2.80
2023-02-11T18:39:27.783Z,-2.80
2023-02-11T18:42:00.116Z,-2.81
2023-02-11T18:44:33.146Z,-2.80
2023-02-11T18:47:06.615Z,-2.78
2023-02-11T18:49:37.206Z,-2.76
2023-02-11T18:52:09.726Z,-2.73
2023-02-11T18:54:41.436Z,-2.69
2023-02-11T18:57:11.237Z,-2.67
2023-02-11T19:00:02.120Z,-2.65
2023-02-11T19:02:38.456Z,-2.63
2023-02-11T19:05:08.667Z,-2.59
2023-02-11T19:07:44.888Z,-2.59
2023-02-11T19:10:14.767Z,-2.57
2023-02-11T19:12:45.974Z,-2.56
2023-02-11T19:15:15.233Z,-2.55
2023-02-11T19:17:45.696Z,-2.54
2023-02-11T19:20:22.008Z,-2.55
2023-02-11T19:22:51.882Z,-2.53
2023-02-11T19:25:21.630Z,-2.54
2023-02-11T19:27:53.585Z,-2.56
2023-02-11T19:30:30.122Z,-2.61
2023-02-11T19:33:05.585Z,-2.65
2023-02-11T19:36:03.906Z,-2.66
2023-02-11T19:38:38.802Z,-2.65
2023-02-11T19:41:12.438Z,-2.64
2023-02-11T19:43:43.696Z,-2.63
2023-02-11T19:46:15.822Z,-2.62
2023-02-11T19:48:45.512Z,-2.62
2023-02-11T19:51:16.193Z,-2.62
2023-02-11T19:53:51.836Z,-2.60
2023-02-11T19:56:22.905Z,-2.59
2023-02-11T19:58:52.749Z,-2.62
2023-02-11T20:01:25.120Z,-2.61
2023-02-11T20:04:00.870Z,-2.59
2023-02-11T20:06:32.588Z,-2.57
2023-02-11T20:09:07.835Z,-2.55
2023-02-11T20:11:40.159Z,-2.53
2023-02-11T20:14:13.404Z,-2.52
2023-02-11T20:16:49.266Z,-2.52
2023-02-11T20:19:22.375Z,-2.52
2023-02-11T20:21:56.275Z,-2.53
2023-02-11T20:24:26.110Z,-2.53
2023-02-11T20:26:56.401Z,-2.52
2023-02-11T20:29:31.526Z,-2.52
2023-02-11T20:32:00.868Z,-2.51
2023-02-11T20:34:35.068Z,-2.51
2023-02-11T20:37:05.497Z,-2.51
2023-02-11T20:39:35.939Z,-2.51
2023-02-11T20:42:05.341Z,-2.53
2023-02-11T20:44:37.375Z,-2.55
2023-02-11T20:47:07.042Z,-2.55
2023-02-11T20:49:38.001Z,-2.54
2023-02-11T20:52:11.594Z,-2.52
2023-02-11T20:54:41.703Z,-2.50
2023-02-11T20:57:11.621Z,-2.50
2023-02-11T20:59:43.670Z,-2.48
2023-02-11T21:02:13.953Z,-2.48
2023-02-11T21:04:47.275Z,-2.49
2023-02-11T21:07:16.732Z,-2.49
2023-02-11T21:09:47.290Z,-2.48
2023-02-11T21:12:19.524Z,-2.48
2023-02-11T21:14:48.982Z,-2.48
2023-02-11T21:17:33.603Z,-2.48
2023-02-11T21:20:02.684Z,-2.48
2023-02-11T21:22:58.532Z,-2.47
2023-02-11T21:25:42.276Z,-2.45
2023-02-11T21:28:12.199Z,-2.45
2023-02-11T21:30:42.308Z,-2.44
2023-02-11T21:33:12.827Z,-2.44
2023-02-11T21:35:43.325Z,-2.43
2023-02-11T21:38:13.535Z,-2.42
2023-02-11T21:40:46.968Z,-2.42
2023-02-11T21:43:21.486Z,-2.43
2023-02-11T21:45:55.163Z,-2.43
2023-02-11T21:48:26.326Z,-2.45
2023-02-11T21:50:56.382Z,-2.45
2023-02-11T21:53:30.267Z,-2.46
2023-02-11T21:56:05.603Z,-2.47
2023-02-11T21:58:37.874Z,-2.47
2023-02-11T22:01:19.186Z,-2.47
2023-02-11T22:03:49.960Z,-2.49
2023-02-11T22:06:26.735Z,-2.49
2023-02-11T22:08:57.044Z,-2.49
2023-02-11T22:11:26.524Z,-2.48
2023-02-11T22:13:59.530Z,-2.49
2023-02-11T22:16:30.042Z,-2.48
2023-02-11T22:19:02.771Z,-2.49
2023-02-11T22:21:33.046Z,-2.49
2023-02-11T22:24:05.192Z,-2.49
2023-02-11T22:26:35.036Z,-2.47
2023-02-11T22:29:07.716Z,-2.46
2023-02-11T22:31:37.450Z,-2.44
2023-02-11T22:34:07.732Z,-2.47
2023-02-11T22:36:39.942Z,-2.42
2023-02-11T22:39:13.599Z,-2.42
2023-02-11T22:41:45.013Z,-2.41
2023-02-11T22:44:17.674Z,-2.40
2023-02-11T22:46:48.631Z,-2.40
2023-02-11T22:49:20.464Z,-2.41
2023-02-11T22:51:52.788Z,-2.41
2023-02-11T22:54:28.537Z,-2.43
2023-02-11T22:56:57.693Z,-2.43
2023-02-11T22:59:27.261Z,-2.44
2023-02-11T23:01:58.016Z,-2.44
2023-02-11T23:04:29.545Z,-2.45
2023-02-11T23:06:59.143Z,-2.45
2023-02-11T23:09:28.474Z,-2.45
2023-02-11T23:11:58.882Z,-2.45
2023-02-11T23:14:33.574Z,-2.45
2023-02-11T23:17:04.117Z,-2.44
2023-02-11T23:19:34.010Z,-2.45
2023-02-11T23:22:04.413Z,-2.45
2023-02-11T23:24:33.648Z,-2.45
2023-02-11T23:27:03.562Z,-2.45
2023-02-11T23:29:33.022Z,-2.47
2023-02-11T23:32:03.228Z,-2.48
2023-02-11T23:34:33.018Z,-2.48
2023-02-11T23:37:03.052Z,-2.48
2023-02-11T23:39:33.251Z,-2.49
2023-02-11T23:42:03.933Z,-2.48
2023-02-11T23:44:34.834Z,-2.48
2023-02-11T23:47:04.920Z,-2.49
2023-02-11T23:49:34.745Z,-2.49
2023-02-11T23:52:05.224Z,-2.51
2023-02-11T23:54:35.487Z,-2.51
2023-02-11T23:57:04.725Z,-2.52
2023-02-11T23:59:34.326Z,-2.52
